Time;durP1;ratioP1;P1;durP2;ratioP2;P2;SDS_P1;SDS_P2;PMS_P1;PMS_P2;Temp;Humidity;BMP_temperature;BMP_pressure;BME280_temperature;BME280_humidity;BME280_pressure;Samples;Min_cycle;Max_cycle;Signal;HPM_P1;HPM_P2
2022/10/26 00:00:38;;;;;;;15.15;5.88;;;;;;;7.47;59.37;101544.72;5008742;28;20044;-72
2022/10/26 00:03:03;;;;;;;10.05;5.05;;;;;;;7.53;58.61;101543.75;5023647;28;20534;-72
2022/10/26 00:05:32;;;;;;;10.00;4.13;;;;;;;7.50;57.98;101533.41;5007454;28;20041;-71
2022/10/26 00:07:57;;;;;;;7.70;4.25;;;;;;;7.41;57.83;101534.41;5023579;28;20421;-72
2022/10/26 00:10:23;;;;;;;10.27;4.95;;;;;;;7.30;57.87;101537.19;5026180;28;20029;-71
2022/10/26 00:12:50;;;;;;;14.07;5.05;;;;;;;7.24;58.61;101545.06;4996393;28;20505;-72
2022/10/26 00:15:16;;;;;;;10.93;4.93;;;;;;;7.24;58.90;101544.22;5007681;28;20029;-74
2022/10/26 00:17:42;;;;;;;13.23;6.85;;;;;;;7.21;59.04;101542.53;5025516;28;20144;-71
2022/10/26 00:20:08;;;;;;;15.98;6.20;;;;;;;7.28;59.50;101532.91;5024245;28;20421;-72
2022/10/26 00:22:33;;;;;;;13.57;6.47;;;;;;;7.29;59.50;101535.47;5007136;28;20041;-72
2022/10/26 00:24:59;;;;;;;12.60;5.78;;;;;;;7.29;59.45;101535.47;5007684;28;20041;-72
2022/10/26 00:27:24;;;;;;;12.25;6.13;;;;;;;7.35;59.26;101541.47;5026711;28;20120;-72
2022/10/26 00:29:50;;;;;;;12.88;5.97;;;;;;;7.35;59.59;101536.25;5006473;28;20579;-72
2022/10/26 00:32:15;;;;;;;8.00;5.40;;;;;;;7.28;58.46;101536.34;5000577;28;20147;-71
2022/10/26 00:34:40;;;;;;;9.35;4.32;;;;;;;7.24;58.12;101534.66;5022460;28;20127;-72
2022/10/26 00:37:06;;;;;;;7.50;4.68;;;;;;;7.25;58.00;101540.75;5026670;28;20110;-69
2022/10/26 00:39:31;;;;;;;7.80;4.32;;;;;;;7.09;57.68;101537.53;5025199;28;20443;-72
2022/10/26 00:41:57;;;;;;;7.38;4.03;;;;;;;7.02;58.03;101543.69;5025645;28;20045;-72
2022/10/26 00:44:47;;;;;;;7.18;4.32;;;;;;;7.03;57.80;101542.81;5026538;28;20057;-71
2022/10/26 00:47:24;;;;;;;6.75;3.40;;;;;;;6.95;57.59;101542.06;5025322;28;20317;-73
2022/10/26 00:49:52;;;;;;;9.07;4.97;;;;;;;6.83;57.82;101535.28;5023010;28;20061;-73
2022/10/26 00:52:19;;;;;;;8.35;4.88;;;;;;;6.79;58.22;101538.81;5024994;28;20281;-72
2022/10/26 00:54:44;;;;;;;9.80;4.50;;;;;;;6.77;58.35;101546.63;5021200;28;20044;-71
2022/10/26 00:57:13;;;;;;;5.75;3.35;;;;;;;6.81;57.93;101547.44;5023579;28;20045;-72
2022/10/26 00:59:39;;;;;;;5.82;3.63;;;;;;;6.85;57.65;101555.16;5023523;28;20353;-71
2022/10/26 01:02:05;;;;;;;10.88;4.50;;;;;;;6.84;57.92;101555.19;5007373;28;20040;-71
2022/10/26 01:04:32;;;;;;;4.53;3.13;;;;;;;6.74;57.80;101556.22;5025757;28;20032;-71
2022/10/26 01:07:00;;;;;;;4.57;3.13;;;;;;;6.70;57.40;101550.19;5025545;28;20212;-71
2022/10/26 01:09:26;;;;;;;5.38;2.67;;;;;;;6.67;57.59;101545.88;5007602;28;20346;-71
2022/10/26 01:11:51;;;;;;;5.80;4.03;;;;;;;6.61;58.41;101539.91;5023750;28;20105;-71
2022/10/26 01:14:19;;;;;;;7.47;3.78;;;;;;;6.67;58.86;101550.22;5023814;28;20034;-71
2022/10/26 01:16:50;;;;;;;7.85;3.47;;;;;;;6.69;58.67;101540.69;5023386;28;20061;-71
2022/10/26 01:19:21;;;;;;;12.38;4.63;;;;;;;6.70;58.42;101534.59;5008478;28;20049;-71
2022/10/26 01:21:49;;;;;;;5.03;3.70;;;;;;;6.76;58.13;101531.06;5006964;28;20037;-71
2022/10/26 01:24:21;;;;;;;5.82;3.65;;;;;;;6.70;58.01;101534.59;5025954;28;20604;-71
2022/10/26 01:27:30;;;;;;;9.95;5.15;;;;;;;6.66;58.44;101533.78;5022685;28;20037;-72
2022/10/26 01:30:19;;;;;;;5.75;3.63;;;;;;;6.57;58.28;101543.41;4972152;28;20420;-71
2022/10/26 01:32:50;;;;;;;7.97;4.03;;;;;;;6.57;58.55;101538.22;5004153;28;20344;-71
2022/10/26 01:35:40;;;;;;;7.75;4.07;;;;;;;6.57;58.46;101539.06;5024228;28;20041;-71
2022/10/26 01:38:09;;;;;;;6.57;4.03;;;;;;;6.53;58.28;101536.53;5022521;28;20209;-71
2022/10/26 01:40:39;;;;;;;7.60;4.07;;;;;;;6.54;58.52;101527.88;5008100;28;20060;-71
2022/10/26 01:43:08;;;;;;;6.43;3.58;;;;;;;6.50;58.01;101530.50;5009771;28;20045;-71
2022/10/26 01:45:37;;;;;;;8.05;4.15;;;;;;;6.50;57.90;101525.31;5015569;28;20175;-71
2022/10/26 01:48:03;;;;;;;6.85;4.13;;;;;;;6.47;57.91;101532.28;5007057;28;20477;-71
2022/10/26 01:50:30;;;;;;;9.32;4.38;;;;;;;6.41;58.10;101528.03;5023271;28;20132;-72
2022/10/26 01:52:55;;;;;;;6.18;3.60;;;;;;;6.41;58.24;101525.44;5019072;28;20056;-71
2022/10/26 01:55:40;;;;;;;6.22;3.25;;;;;;;6.40;58.03;101521.13;5023957;28;20025;-72
2022/10/26 01:58:24;;;;;;;10.52;4.65;;;;;;;6.37;58.05;101518.53;5024139;28;20052;-73
2022/10/26 02:01:02;;;;;;;8.43;3.95;;;;;;;6.37;57.74;101515.94;5023497;28;20045;-71
2022/10/26 02:03:39;;;;;;;5.80;3.65;;;;;;;6.31;57.77;101516.03;5021549;28;20697;-70
2022/10/26 02:06:20;;;;;;;14.05;5.50;;;;;;;6.27;58.51;101514.31;5008528;28;20095;-71
2022/10/26 02:08:54;;;;;;;13.25;5.80;;;;;;;6.29;58.77;101515.19;5023342;28;20085;-71
2022/10/26 02:11:45;;;;;;;9.18;6.07;;;;;;;6.36;59.03;101509.06;5022160;28;20049;-71
2022/10/26 02:14:46;;;;;;;9.63;5.93;;;;;;;6.34;58.79;101499.56;5013790;28;20040;-71
2022/10/26 02:17:20;;;;;;;9.68;5.93;;;;;;;6.34;58.85;101502.16;5011168;28;20044;-71
2022/10/26 02:19:56;;;;;;;10.73;4.95;;;;;;;6.37;58.69;101497.78;5022072;28;20083;-71
2022/10/26 02:22:32;;;;;;;12.73;5.15;;;;;;;6.26;58.58;101500.50;5023593;28;20052;-71
2022/10/26 02:25:00;;;;;;;12.48;6.28;;;;;;;6.29;58.97;101490.09;5004191;28;20311;-71
2022/10/26 02:27:30;;;;;;;7.93;4.53;;;;;;;6.29;58.19;101491.84;5022332;28;20513;-72
2022/10/26 02:29:59;;;;;;;11.35;5.43;;;;;;;6.22;58.08;101487.56;5023034;28;20094;-71
2022/10/26 02:32:29;;;;;;;15.82;6.97;;;;;;;6.18;58.75;101488.47;5006400;28;20049;-73
2022/10/26 02:34:58;;;;;;;13.77;6.18;;;;;;;6.24;59.08;101489.25;5022588;28;20032;-71
2022/10/26 02:37:25;;;;;;;15.25;5.93;;;;;;;6.22;59.27;101492.75;5024114;28;20698;-71
2022/10/26 02:39:53;;;;;;;11.93;6.95;;;;;;;6.29;59.33;101486.66;5004041;28;20033;-72
2022/10/26 02:42:21;;;;;;;13.23;6.47;;;;;;;6.41;59.46;101488.22;5006940;28;20053;-71
2022/10/26 02:44:56;;;;;;;13.80;7.38;;;;;;;6.41;59.23;101481.28;5023114;28;20124;-72
2022/10/26 02:47:23;;;;;;;14.48;6.97;;;;;;;6.43;59.00;101478.69;5025264;28;20095;-72
2022/10/26 02:49:49;;;;;;;14.82;7.32;;;;;;;6.49;59.72;101478.59;5010202;28;20037;-71
2022/10/26 02:52:38;;;;;;;15.77;7.10;;;;;;;6.59;59.22;101479.31;5026401;28;20173;-71
2022/10/26 02:55:13;;;;;;;13.48;7.00;;;;;;;6.49;58.88;101474.25;5006689;28;20036;-71
2022/10/26 02:57:46;;;;;;;12.80;7.05;;;;;;;6.50;58.92;101481.16;5008933;28;20048;-71
2022/10/26 03:00:15;;;;;;;10.68;6.20;;;;;;;6.55;58.58;101473.34;5021896;28;20037;-71
2022/10/26 03:02:43;;;;;;;12.07;6.07;;;;;;;6.45;58.28;101469.97;5025254;28;20052;-71
2022/10/26 03:05:14;;;;;;;16.63;7.00;;;;;;;6.43;58.89;101476.06;5022962;28;20031;-71
2022/10/26 03:07:40;;;;;;;14.25;7.10;;;;;;;6.41;58.83;101467.44;5005627;28;20068;-71
2022/10/26 03:10:06;;;;;;;12.80;5.25;;;;;;;6.44;58.67;101468.28;5006300;28;20033;-73
2022/10/26 03:12:31;;;;;;;11.27;6.38;;;;;;;6.40;58.04;101464.00;5003740;28;20052;-71
2022/10/26 03:14:56;;;;;;;9.85;5.93;;;;;;;6.33;58.00;101472.75;5004378;28;20064;-71
2022/10/26 03:17:22;;;;;;;9.63;5.10;;;;;;;6.29;57.70;101469.31;5022880;28;20037;-71
2022/10/26 03:19:47;;;;;;;8.82;4.80;;;;;;;6.21;58.09;101462.47;5005480;28;20614;-71
2022/10/26 03:22:13;;;;;;;14.65;6.43;;;;;;;6.19;58.55;101467.66;5021362;28;20059;-71
2022/10/26 03:24:38;;;;;;;16.67;6.45;;;;;;;6.17;58.86;101471.16;5022724;28;20034;-71
2022/10/26 03:27:04;;;;;;;9.43;5.45;;;;;;;6.17;58.38;101473.75;5005455;28;20127;-71
2022/10/26 03:29:29;;;;;;;15.98;6.25;;;;;;;6.17;59.31;101471.16;5023436;28;23227;-71
2022/10/26 03:31:54;;;;;;;10.20;6.03;;;;;;;6.32;59.34;101471.00;5022036;28;20330;-71
2022/10/26 03:34:20;;;;;;;9.93;5.40;;;;;;;6.42;59.28;101467.44;5023321;28;20068;-71
2022/10/26 03:36:46;;;;;;;9.65;5.25;;;;;;;6.37;58.72;101469.22;5011161;28;20033;-71
2022/10/26 03:39:12;;;;;;;11.00;5.95;;;;;;;6.31;59.19;101465.84;5014366;28;20039;-71
2022/10/26 03:41:37;;;;;;;14.50;5.20;;;;;;;6.35;59.21;101465.81;5002771;28;20041;-71
2022/10/26 03:44:03;;;;;;;8.95;5.53;;;;;;;6.38;58.95;101470.09;5024950;28;20473;-71
2022/10/26 03:46:28;;;;;;;6.97;5.35;;;;;;;6.34;58.42;101471.00;5001241;28;20064;-71
2022/10/26 03:48:54;;;;;;;11.00;5.78;;;;;;;6.21;58.45;101465.06;4997191;28;20182;-72
2022/10/26 03:51:20;;;;;;;9.40;4.63;;;;;;;6.09;58.13;101463.50;5027729;28;20045;-72
2022/10/26 03:53:45;;;;;;;7.38;4.97;;;;;;;6.00;58.01;101469.63;5026037;28;20036;-72
2022/10/26 03:56:11;;;;;;;9.70;5.10;;;;;;;5.87;58.28;101470.66;5027849;28;20036;-72
2022/10/26 03:58:36;;;;;;;11.75;5.93;;;;;;;5.85;58.74;101469.81;5009931;28;20520;-70
2022/10/26 04:01:01;;;;;;;8.32;5.43;;;;;;;5.90;59.08;101477.53;5027360;28;20573;-71
2022/10/26 04:03:27;;;;;;;12.00;6.00;;;;;;;5.97;59.24;101467.09;5019203;28;20438;-71
2022/10/26 04:05:52;;;;;;;9.15;5.60;;;;;;;6.02;58.92;101473.09;5005200;28;20033;-72
2022/10/26 04:08:18;;;;;;;10.57;6.13;;;;;;;6.01;59.76;101475.69;5008278;28;20257;-70
2022/10/26 04:10:44;;;;;;;16.13;6.60;;;;;;;6.07;59.31;101468.69;5006887;28;20128;-71
2022/10/26 04:13:10;;;;;;;13.27;6.85;;;;;;;6.03;58.79;101479.97;5007411;28;20037;-71
2022/10/26 04:15:36;;;;;;;11.15;7.00;;;;;;;6.08;59.58;101465.22;5026341;28;20489;-71
2022/10/26 04:18:02;;;;;;;11.88;7.60;;;;;;;6.12;59.62;101467.78;5025472;28;20052;-71
2022/10/26 04:20:30;;;;;;;11.25;6.85;;;;;;;6.13;59.14;101464.28;5012898;28;20041;-71
2022/10/26 04:22:57;;;;;;;12.68;7.38;;;;;;;6.10;59.29;101462.59;5025627;28;20053;-71
2022/10/26 04:25:22;;;;;;;12.55;7.60;;;;;;;6.09;58.85;101469.53;5015747;28;20041;-71
2022/10/26 04:27:48;;;;;;;12.18;7.13;;;;;;;6.04;59.20;101471.34;5013554;28;20045;-71
2022/10/26 04:30:13;;;;;;;13.65;7.28;;;;;;;6.04;59.28;101471.34;5024425;28;20037;-71
2022/10/26 04:32:39;;;;;;;16.45;8.77;;;;;;;6.16;59.38;101474.66;5025194;28;20349;-71
2022/10/26 04:35:04;;;;;;;16.45;7.97;;;;;;;6.13;59.70;101474.66;5026731;28;20035;-71
2022/10/26 04:37:30;;;;;;;12.57;7.28;;;;;;;6.20;59.71;101468.56;5014170;28;20371;-71
2022/10/26 04:39:55;;;;;;;15.93;8.57;;;;;;;6.22;59.54;101474.59;5042859;28;20037;-71
2022/10/26 04:42:21;;;;;;;15.05;7.85;;;;;;;6.22;59.72;101474.59;5029453;28;20621;-71
2022/10/26 04:44:46;;;;;;;15.77;8.63;;;;;;;6.24;59.85;101467.66;5023691;28;20037;-71
2022/10/26 04:47:11;;;;;;;18.10;9.18;;;;;;;6.21;59.12;101468.50;5025114;28;20041;-71
2022/10/26 04:49:37;;;;;;;20.23;8.45;;;;;;;6.20;59.72;101466.81;5043451;28;20048;-72
2022/10/26 04:52:04;;;;;;;16.15;7.40;;;;;;;6.26;59.35;101471.06;5024047;28;20124;-72
2022/10/26 04:54:30;;;;;;;20.23;8.30;;;;;;;6.24;59.83;101475.44;5041614;28;20043;-72
2022/10/26 04:56:55;;;;;;;18.17;8.65;;;;;;;6.18;59.90;101467.72;5040724;28;20101;-71
2022/10/26 04:59:20;;;;;;;14.68;8.25;;;;;;;6.24;59.44;101467.66;5023778;28;20016;-71
2022/10/26 05:01:46;;;;;;;18.10;9.07;;;;;;;6.26;59.30;101465.88;5042957;28;20033;-71
2022/10/26 05:04:11;;;;;;;18.33;9.40;;;;;;;6.18;59.55;101462.53;5042858;28;20037;-71
2022/10/26 05:06:37;;;;;;;18.58;9.15;;;;;;;6.24;59.36;101465.06;5037648;28;20025;-71
2022/10/26 05:09:03;;;;;;;14.30;8.98;;;;;;;6.20;59.43;101471.16;5044475;28;20062;-71
2022/10/26 05:11:28;;;;;;;13.43;8.65;;;;;;;6.24;59.48;101457.25;5023882;28;20097;-71
2022/10/26 05:13:54;;;;;;;22.58;9.57;;;;;;;6.18;59.46;101467.72;5014135;28;20255;-73
2022/10/26 05:16:19;;;;;;;15.38;8.77;;;;;;;6.22;59.42;101466.81;5021723;28;20163;-71
2022/10/26 05:18:48;;;;;;;15.60;8.90;;;;;;;6.25;59.61;101459.81;5031072;28;20037;-70
2022/10/26 05:21:18;;;;;;;16.33;9.38;;;;;;;6.24;59.48;101452.91;5033140;28;20044;-70
2022/10/26 05:23:52;;;;;;;14.07;9.30;;;;;;;6.25;59.30;101462.41;5030486;28;20329;-71
2022/10/26 05:26:19;;;;;;;16.50;9.27;;;;;;;6.22;59.49;101451.22;5031580;28;20037;-71
2022/10/26 05:28:44;;;;;;;17.98;9.23;;;;;;;6.22;59.46;101449.47;5028190;28;20063;-72
2022/10/26 05:31:10;;;;;;;17.85;10.50;;;;;;;6.23;59.60;101450.34;5030599;28;20041;-71
2022/10/26 05:33:36;;;;;;;19.40;10.10;;;;;;;6.17;59.32;101437.44;5028315;28;20069;-71
2022/10/26 05:36:01;;;;;;;18.25;9.45;;;;;;;6.14;59.54;101435.72;5032024;28;20029;-72
2022/10/26 05:38:26;;;;;;;16.20;8.88;;;;;;;6.16;59.40;101438.31;5028366;28;20045;-71
2022/10/26 05:40:53;;;;;;;19.60;9.38;;;;;;;6.16;59.43;101443.50;5029749;28;20029;-71
2022/10/26 05:43:23;;;;;;;17.83;9.55;;;;;;;6.06;60.22;101446.22;5012221;28;20079;-71
2022/10/26 05:45:49;;;;;;;18.52;9.23;;;;;;;6.09;60.26;101442.72;5031954;28;20273;-72
2022/10/26 05:48:15;;;;;;;18.42;10.00;;;;;;;6.08;60.33;101447.06;5030966;28;20112;-71
2022/10/26 05:50:40;;;;;;;21.25;10.27;;;;;;;6.15;60.24;101452.16;5008678;28;20715;-71
2022/10/26 05:53:08;;;;;;;20.98;11.25;;;;;;;6.17;60.18;101445.22;5007204;28;20052;-71
2022/10/26 05:55:34;;;;;;;26.25;10.75;;;;;;;6.14;60.15;101453.06;5023331;28;20026;-71
2022/10/26 05:57:59;;;;;;;21.48;8.68;;;;;;;6.16;60.04;101451.28;5008372;28;20057;-70
2022/10/26 06:00:27;;;;;;;18.13;9.93;;;;;;;6.18;59.79;101453.00;5005377;28;20041;-71
2022/10/26 06:03:17;;;;;;;20.70;10.18;;;;;;;6.14;60.12;101455.66;5023226;28;20040;-73
2022/10/26 06:05:52;;;;;;;19.85;10.70;;;;;;;6.14;59.80;101458.25;5024157;28;20041;-71
2022/10/26 06:08:18;;;;;;;21.67;11.00;;;;;;;6.13;60.09;101454.78;5007733;28;20077;-72
2022/10/26 06:10:45;;;;;;;21.80;10.35;;;;;;;6.15;59.98;101458.22;5009667;28;20029;-71
2022/10/26 06:13:10;;;;;;;19.60;9.85;;;;;;;6.19;59.90;101459.03;5021957;28;20106;-70
2022/10/26 06:15:49;;;;;;;16.38;9.50;;;;;;;6.16;60.33;101465.13;5023221;28;20041;-71
2022/10/26 06:18:53;;;;;;;17.58;10.18;;;;;;;6.21;59.93;101465.06;5022755;28;20417;-70
2022/10/26 06:21:18;;;;;;;23.35;10.10;;;;;;;6.18;60.13;101467.72;5021181;28;20387;-71
2022/10/26 06:24:41;;;;;;;22.17;11.05;;;;;;;6.25;59.99;101474.53;5003609;28;20052;-71
2022/10/26 06:27:33;;;;;;;19.65;9.98;;;;;;;6.15;60.13;101470.31;4940363;28;20407;-71
2022/10/26 06:30:06;;;;;;;16.35;10.13;;;;;;;6.14;60.35;101476.41;4940798;28;20133;-71
2022/10/26 06:32:32;;;;;;;18.20;9.25;;;;;;;6.25;59.89;101482.34;4995598;28;20056;-71
2022/10/26 06:35:20;;;;;;;19.10;10.20;;;;;;;6.26;59.74;101482.31;5022874;28;20025;-71
2022/10/26 06:37:46;;;;;;;23.08;10.32;;;;;;;6.34;59.79;101474.44;5019854;28;20053;-70
2022/10/26 06:40:14;;;;;;;20.05;10.80;;;;;;;6.45;60.21;101480.38;5021926;28;20041;-71
2022/10/26 06:42:40;;;;;;;23.00;9.65;;;;;;;6.53;60.02;101479.41;5021526;28;20075;-71
2022/10/26 06:45:10;;;;;;;20.65;9.73;;;;;;;6.66;60.20;101486.16;5022428;28;20500;-71
2022/10/26 06:47:43;;;;;;;18.15;10.93;;;;;;;6.72;59.87;101485.22;5024778;28;20413;-71
2022/10/26 06:50:36;;;;;;;20.33;9.85;;;;;;;6.82;59.74;101487.66;5004539;28;20041;-71
2022/10/26 06:53:22;;;;;;;21.50;10.63;;;;;;;6.93;59.87;101484.88;5022593;28;20036;-71
2022/10/26 06:55:49;;;;;;;16.17;9.80;;;;;;;7.05;59.62;101479.53;5023682;28;20032;-72
2022/10/26 06:58:18;;;;;;;20.80;10.98;;;;;;;7.13;59.65;101481.97;5003585;28;20091;-71
2022/10/26 07:00:45;;;;;;;21.40;11.00;;;;;;;7.23;59.99;101480.97;5005584;28;20067;-71
2022/10/26 07:03:11;;;;;;;19.15;9.93;;;;;;;7.30;59.57;101479.13;5005955;28;20053;-72
2022/10/26 07:05:36;;;;;;;16.90;9.95;;;;;;;7.30;59.59;101479.13;5013452;28;20044;-71
2022/10/26 07:08:03;;;;;;;20.00;10.18;;;;;;;7.45;59.54;101472.81;5022256;28;20140;-71
2022/10/26 07:10:29;;;;;;;21.58;10.02;;;;;;;7.44;59.38;101476.28;5026482;28;20032;-72
2022/10/26 07:12:54;;;;;;;16.75;9.95;;;;;;;7.68;59.37;101481.09;5015922;28;20097;-72
2022/10/26 07:15:20;;;;;;;21.58;10.40;;;;;;;8.81;60.34;101481.41;5022648;28;20479;-71
2022/10/26 07:17:47;;;;;;;16.77;9.55;;;;;;;10.02;56.02;101479.22;5008663;28;20045;-72
2022/10/26 07:20:19;;;;;;;18.67;9.13;;;;;;;11.07;51.99;101477.88;5027720;28;20124;-72
2022/10/26 07:22:51;;;;;;;17.30;8.63;;;;;;;11.86;51.53;101469.09;5023157;28;20053;-71
2022/10/26 07:25:16;;;;;;;15.10;6.93;;;;;;;12.04;48.07;101478.03;5027794;28;20033;-71
2022/10/26 07:27:42;;;;;;;11.73;7.40;;;;;;;11.18;50.38;101473.16;5012713;28;20048;-71
2022/10/26 07:30:08;;;;;;;12.27;7.22;;;;;;;10.38;51.05;101475.63;5027648;28;20307;-70
2022/10/26 07:32:33;;;;;;;10.10;6.47;;;;;;;9.82;52.46;101465.03;5027147;28;20056;-70
2022/10/26 07:34:59;;;;;;;9.27;6.45;;;;;;;9.27;54.01;101468.13;5028171;28;20041;-72
2022/10/26 07:37:24;;;;;;;14.27;7.30;;;;;;;9.12;55.67;101455.47;5029111;28;20033;-71
2022/10/26 07:39:50;;;;;;;11.90;7.07;;;;;;;10.71;52.18;101465.91;5001804;28;20071;-71
2022/10/26 07:42:15;;;;;;;9.25;5.75;;;;;;;11.04;50.05;101461.38;5031514;28;20087;-72
2022/10/26 07:44:41;;;;;;;10.07;5.65;;;;;;;10.89;49.28;101468.88;5016381;28;20612;-71
2022/10/26 07:47:06;;;;;;;10.02;5.43;;;;;;;10.80;51.47;101480.44;5015265;28;20045;-73
2022/10/26 07:49:32;;;;;;;8.88;4.93;;;;;;;12.48;48.85;101467.66;5019915;28;20346;-72
2022/10/26 07:51:57;;;;;;;11.02;6.00;;;;;;;12.06;46.66;101460.50;5025878;28;20084;-71
2022/10/26 07:54:23;;;;;;;9.68;6.13;;;;;;;11.64;47.40;101458.47;5028094;28;20037;-71
2022/10/26 07:56:49;;;;;;;8.52;4.88;;;;;;;10.82;49.42;101453.38;5016759;28;20198;-72
2022/10/26 07:59:15;;;;;;;9.98;5.63;;;;;;;10.45;50.32;101458.84;5027981;28;20021;-72
2022/10/26 08:01:41;;;;;;;10.93;5.90;;;;;;;10.09;51.78;101458.19;5022634;28;20446;-72
2022/10/26 08:04:07;;;;;;;10.30;6.18;;;;;;;10.13;51.17;101451.97;5028273;28;20048;-72
2022/10/26 08:06:32;;;;;;;9.30;6.20;;;;;;;10.06;52.72;101451.28;5027957;28;20496;-73
2022/10/26 08:08:58;;;;;;;13.23;5.68;;;;;;;9.84;52.66;101452.78;5009016;28;20041;-71
2022/10/26 08:11:24;;;;;;;10.00;5.72;;;;;;;10.07;51.99;101463.44;5027911;28;20044;-72
2022/10/26 08:13:53;;;;;;;11.73;4.97;;;;;;;9.93;52.09;101465.59;5023701;28;20088;-71
2022/10/26 08:16:19;;;;;;;9.48;5.35;;;;;;;10.45;51.79;101461.47;5026790;28;20029;-71
2022/10/26 08:18:49;;;;;;;9.13;5.75;;;;;;;10.93;50.21;101466.09;5014518;28;20434;-71
2022/10/26 08:21:15;;;;;;;8.18;5.07;;;;;;;12.41;47.87;101460.94;5027423;28;20322;-71
2022/10/26 08:23:41;;;;;;;9.02;4.60;;;;;;;14.02;44.02;101461.31;5024551;28;20520;-71
2022/10/26 08:26:10;;;;;;;7.13;4.25;;;;;;;14.66;42.34;101465.38;5011431;28;20124;-71
2022/10/26 08:28:36;;;;;;;5.63;4.38;;;;;;;14.90;40.53;101464.19;4993351;28;20437;-71
2022/10/26 08:31:02;;;;;;;8.05;5.43;;;;;;;14.86;41.07;101467.91;5027844;28;20049;-71
2022/10/26 08:33:28;;;;;;;9.93;4.75;;;;;;;15.03;40.70;101461.78;5024477;28;20034;-71
2022/10/26 08:35:58;;;;;;;6.13;4.40;;;;;;;15.12;40.25;101466.59;5006396;28;20032;-71
2022/10/26 08:38:24;;;;;;;9.27;5.03;;;;;;;14.86;40.38;101464.41;5009664;28;20049;-71
2022/10/26 08:40:50;;;;;;;6.03;4.45;;;;;;;14.56;41.40;101464.94;5012952;28;20048;-71
2022/10/26 08:43:33;;;;;;;6.18;3.95;;;;;;;13.83;42.81;101459.50;5004874;28;20041;-72
2022/10/26 08:46:08;;;;;;;9.15;4.68;;;;;;;14.00;42.76;101453.47;5024133;28;20040;-71
2022/10/26 08:48:38;;;;;;;7.63;3.55;;;;;;;14.11;42.55;101445.97;5007973;28;20041;-72
2022/10/26 08:51:13;;;;;;;5.88;4.13;;;;;;;14.53;42.20;101462.47;5007773;28;20076;-71
2022/10/26 08:53:59;;;;;;;6.18;3.80;;;;;;;14.64;42.03;101460.19;5008707;28;20041;-72
2022/10/26 08:56:37;;;;;;;5.05;3.35;;;;;;;14.70;41.32;101449.38;5006270;28;20040;-72
2022/10/26 08:59:16;;;;;;;6.10;4.00;;;;;;;14.74;42.33;101450.06;5024845;28;20056;-72
2022/10/26 09:01:42;;;;;;;4.95;3.47;;;;;;;14.58;42.15;101449.94;5023416;28;20548;-71
2022/10/26 09:04:11;;;;;;;6.45;3.50;;;;;;;14.94;42.22;101444.66;5023469;28;20041;-72
2022/10/26 09:06:59;;;;;;;7.90;3.03;;;;;;;15.15;40.50;101444.56;5014409;28;20033;-71
2022/10/26 09:09:52;;;;;;;6.80;3.08;;;;;;;15.03;40.98;101440.72;5023960;28;20038;-71
2022/10/26 09:12:43;;;;;;;8.30;3.13;;;;;;;15.25;41.65;101431.78;5023409;28;21626;-71
2022/10/26 09:15:33;;;;;;;7.45;3.80;;;;;;;15.48;40.75;101426.22;5024648;28;20025;-72
2022/10/26 09:18:27;;;;;;;8.35;3.65;;;;;;;15.46;39.73;101421.91;4991615;28;20045;-72
2022/10/26 09:21:01;;;;;;;8.82;3.30;;;;;;;15.07;41.46;101421.22;5024426;28;20047;-73
2022/10/26 09:23:51;;;;;;;7.65;3.00;;;;;;;14.52;42.58;101421.31;5007234;28;20057;-71
2022/10/26 09:26:38;;;;;;;8.35;2.92;;;;;;;14.68;43.57;101422.28;5024148;28;20507;-71
2022/10/26 09:29:11;;;;;;;5.50;3.15;;;;;;;15.11;41.79;101428.03;5023393;28;20553;-71
2022/10/26 09:31:43;;;;;;;5.25;3.55;;;;;;;15.39;41.43;101421.38;5010048;28;20044;-71
2022/10/26 09:34:41;;;;;;;4.72;2.88;;;;;;;15.46;41.56;101427.19;5026685;28;20037;-72
2022/10/26 09:37:30;;;;;;;5.85;2.72;;;;;;;15.80;40.99;101421.00;5023330;28;20060;-72
2022/10/26 09:40:08;;;;;;;3.13;2.30;;;;;;;15.68;40.74;101417.22;5025387;28;20037;-71
2022/10/26 09:42:42;;;;;;;5.15;2.90;;;;;;;16.38;40.17;101420.47;5004503;28;20053;-72
2022/10/26 09:45:26;;;;;;;4.57;2.58;;;;;;;16.44;39.72;101423.72;5022033;28;20397;-72
2022/10/26 09:47:55;;;;;;;7.65;2.58;;;;;;;16.02;41.33;101435.69;5021580;28;20397;-72
2022/10/26 09:50:35;;;;;;;4.20;2.63;;;;;;;16.58;39.63;101423.78;5007714;28;20090;-72
2022/10/26 09:53:02;;;;;;;3.83;2.53;;;;;;;16.53;40.31;101425.81;5022501;28;20103;-72
2022/10/26 09:55:30;;;;;;;6.93;2.75;;;;;;;16.71;38.65;101430.06;4999457;28;20044;-73
2022/10/26 09:58:01;;;;;;;4.50;2.05;;;;;;;16.00;40.25;101431.34;5007644;28;20493;-71
2022/10/26 10:00:27;;;;;;;3.10;1.65;;;;;;;16.95;38.71;101432.25;5025106;28;20048;-72
2022/10/26 10:02:57;;;;;;;3.70;1.48;;;;;;;17.07;39.60;101430.66;5008074;28;20036;-72
2022/10/26 10:05:29;;;;;;;7.05;1.98;;;;;;;17.45;38.06;101437.19;5005639;28;20561;-72
2022/10/26 10:08:17;;;;;;;4.85;2.60;;;;;;;17.52;38.07;101440.34;5022705;28;20047;-72
2022/10/26 10:11:06;;;;;;;5.88;1.80;;;;;;;17.59;38.57;101438.16;5022031;28;20722;-72
2022/10/26 10:13:35;;;;;;;5.35;1.48;;;;;;;17.30;38.80;101445.19;5015628;28;20045;-71
2022/10/26 10:16:05;;;;;;;6.82;1.85;;;;;;;17.27;38.44;101445.34;5005805;28;20132;-71
2022/10/26 10:18:32;;;;;;;3.05;1.88;;;;;;;17.00;40.77;101440.75;5014155;28;20075;-72
2022/10/26 10:20:58;;;;;;;3.03;1.75;;;;;;;16.65;39.45;101450.69;5008500;28;20409;-71
2022/10/26 10:23:30;;;;;;;4.18;1.42;;;;;;;17.20;40.25;101447.50;5022107;28;20159;-71
2022/10/26 10:26:09;;;;;;;3.63;1.85;;;;;;;17.16;39.70;101457.41;5008628;28;20059;-71
2022/10/26 10:28:36;;;;;;;3.40;1.20;;;;;;;17.67;39.60;101461.47;5013020;28;20068;-72
2022/10/26 10:31:04;;;;;;;3.97;1.40;;;;;;;18.51;38.14;101458.88;5024935;28;20044;-71
2022/10/26 10:33:39;;;;;;;2.95;1.42;;;;;;;18.55;36.90;101460.38;5008350;28;20068;-71
2022/10/26 10:36:09;;;;;;;5.05;1.40;;;;;;;18.89;36.13;101464.34;5025719;28;20041;-73
2022/10/26 10:38:47;;;;;;;5.13;1.70;;;;;;;19.03;36.63;101466.09;5004511;28;20045;-72
2022/10/26 10:41:18;;;;;;;6.95;1.38;;;;;;;19.22;35.58;101460.38;5009146;28;20145;-71
2022/10/26 10:43:48;;;;;;;3.38;1.42;;;;;;;19.24;35.87;101468.25;5022947;28;20521;-73
2022/10/26 10:46:21;;;;;;;8.35;2.03;;;;;;;18.59;36.34;101461.88;5005317;28;20116;-71
2022/10/26 10:48:52;;;;;;;6.15;1.42;;;;;;;17.87;37.19;101474.31;5020737;28;20293;-71
2022/10/26 10:51:21;;;;;;;3.50;1.88;;;;;;;18.30;37.00;101471.69;5022883;28;20033;-71
2022/10/26 10:53:50;;;;;;;4.47;1.95;;;;;;;18.66;37.00;101462.34;5008125;28;20202;-72
2022/10/26 10:56:27;;;;;;;2.75;1.27;;;;;;;18.11;37.13;101449.94;5030446;28;20470;-71
2022/10/26 10:58:59;;;;;;;4.40;1.48;;;;;;;18.10;36.83;101453.56;5007724;28;20053;-71
2022/10/26 11:01:31;;;;;;;4.45;1.15;;;;;;;18.02;37.86;101454.88;5027831;28;20041;-71
2022/10/26 11:04:32;;;;;;;2.25;1.50;;;;;;;18.03;37.72;101446.00;5010507;28;20080;-72
2022/10/26 11:07:02;;;;;;;5.82;1.48;;;;;;;18.08;36.96;101445.72;5027568;28;20525;-73
2022/10/26 11:09:32;;;;;;;5.40;1.90;;;;;;;18.00;37.50;101446.16;5029233;28;20275;-72
2022/10/26 11:12:20;;;;;;;4.85;1.67;;;;;;;17.76;38.61;101453.84;5026245;28;20499;-71
2022/10/26 11:14:53;;;;;;;7.13;1.90;;;;;;;17.90;37.50;101466.22;5024846;28;20588;-72
2022/10/26 11:17:26;;;;;;;3.15;1.70;;;;;;;18.17;37.07;101463.63;5023029;28;20037;-71
2022/10/26 11:20:03;;;;;;;2.88;1.50;;;;;;;18.00;37.31;101469.13;5009328;28;20058;-72
2022/10/26 11:22:45;;;;;;;8.07;2.60;;;;;;;17.82;37.81;101461.38;5026949;28;20506;-73
2022/10/26 11:25:18;;;;;;;2.25;1.77;;;;;;;18.24;37.92;101464.13;5025970;28;20536;-72
2022/10/26 11:28:03;;;;;;;4.60;1.63;;;;;;;18.35;38.43;101453.72;5025324;28;20033;-72
2022/10/26 11:30:31;;;;;;;7.88;2.00;;;;;;;18.31;38.29;101452.22;5027481;28;20061;-72
2022/10/26 11:33:08;;;;;;;6.10;2.20;;;;;;;18.58;36.64;101459.31;5026039;28;20048;-71
2022/10/26 11:35:57;;;;;;;5.45;1.33;;;;;;;19.13;35.96;101460.16;4996516;28;20103;-72
2022/10/26 11:38:35;;;;;;;1.92;1.60;;;;;;;19.67;35.99;101452.91;5027748;28;20422;-72
2022/10/26 11:41:01;;;;;;;6.82;1.83;;;;;;;19.73;35.20;101448.16;5010320;28;20048;-72
2022/10/26 11:43:34;;;;;;;2.65;1.42;;;;;;;19.62;35.40;101448.91;5026121;28;20497;-71